createdAt,value
2018-09-15T00:01:57.953Z,95431.16
2018-09-15T00:04:26.334Z,95436.88
2018-09-15T00:06:54.710Z,95437.41
2018-09-15T00:09:23.025Z,95435.16
2018-09-15T00:11:51.478Z,95432.23
2018-09-15T00:14:19.848Z,95433.33
2018-09-15T00:16:48.285Z,95432.55
2018-09-15T00:19:16.601Z,95433.30
2018-09-15T00:21:44.987Z,95430.13
2018-09-15T00:24:13.416Z,95439.55
2018-09-15T00:26:41.932Z,95434.07
2018-09-15T00:29:10.312Z,95435.64
2018-09-15T00:31:38.716Z,95424.94
2018-09-15T00:34:07.117Z,95433.55
2018-09-15T00:36:35.554Z,95427.31
2018-09-15T00:39:05.624Z,95442.68
2018-09-15T00:41:33.987Z,95436.66
2018-09-15T00:44:02.318Z,95441.86
2018-09-15T00:46:30.746Z,95446.56
2018-09-15T00:48:59.242Z,95451.02
2018-09-15T00:51:27.618Z,95448.36
2018-09-15T00:53:56.134Z,95443.69
2018-09-15T00:56:24.505Z,95449.05
2018-09-15T00:58:52.923Z,95446.75
2018-09-15T01:01:21.195Z,95443.92
2018-09-15T01:03:49.697Z,95454.52
2018-09-15T01:06:18.051Z,95456.22
2018-09-15T01:08:46.462Z,95449.81
2018-09-15T01:11:14.947Z,95444.61
2018-09-15T01:13:43.239Z,95436.08
2018-09-15T01:16:11.643Z,95442.01
2018-09-15T01:18:39.998Z,95444.02
2018-09-15T01:21:08.594Z,95443.58
2018-09-15T01:23:36.967Z,95444.66
2018-09-15T01:26:05.391Z,95442.05
2018-09-15T01:28:33.702Z,95440.12
2018-09-15T01:31:02.027Z,95449.91
2018-09-15T01:33:30.410Z,95441.81
2018-09-15T01:35:58.794Z,95448.51
2018-09-15T01:38:27.193Z,95450.09
2018-09-15T01:40:55.532Z,95451.30
2018-09-15T01:43:23.863Z,95451.13
2018-09-15T01:45:52.221Z,95448.29
2018-09-15T01:48:20.548Z,95457.33
2018-09-15T01:50:48.923Z,95454.47
2018-09-15T01:53:17.267Z,95461.02
2018-09-15T01:55:45.605Z,95465.59
2018-09-15T01:58:13.901Z,95465.03
2018-09-15T02:00:42.374Z,95464.64
2018-09-15T02:03:10.748Z,95460.23
2018-09-15T02:05:39.090Z,95461.74
2018-09-15T02:08:07.470Z,95471.31
2018-09-15T02:10:35.811Z,95469.10
2018-09-15T02:13:04.206Z,95471.61
2018-09-15T02:15:32.578Z,95472.50
2018-09-15T02:18:00.948Z,95469.57
2018-09-15T02:20:29.465Z,95475.78
2018-09-15T02:22:57.870Z,95479.73
2018-09-15T02:25:26.198Z,95479.66
2018-09-15T02:27:54.530Z,95482.44
2018-09-15T02:30:22.880Z,95484.91
2018-09-15T02:32:51.188Z,95483.16
2018-09-15T02:35:19.547Z,95487.01
2018-09-15T02:37:47.862Z,95482.96
2018-09-15T02:40:16.283Z,95485.44
2018-09-15T02:42:44.570Z,95478.12
2018-09-15T02:45:12.907Z,95475.05
2018-09-15T02:47:41.231Z,95479.01
2018-09-15T02:50:09.635Z,95482.66
2018-09-15T02:52:37.974Z,95481.31
2018-09-15T02:55:06.353Z,95484.36
2018-09-15T02:57:34.993Z,95474.37
2018-09-15T03:02:42.744Z,95464.37
2018-09-15T03:05:11.140Z,95473.63
2018-09-15T03:07:39.545Z,95475.52
2018-09-15T03:10:07.954Z,95480.12
2018-09-15T03:12:36.267Z,95482.11
2018-09-15T03:15:04.755Z,95485.34
2018-09-15T03:17:33.103Z,95491.97
2018-09-15T03:20:01.415Z,95483.39
2018-09-15T03:22:29.834Z,95486.56
2018-09-15T03:24:58.235Z,95493.27
2018-09-15T03:27:26.556Z,95487.84
2018-09-15T03:29:54.928Z,95485.17
2018-09-15T03:32:23.318Z,95485.41
2018-09-15T03:34:51.740Z,95479.86
2018-09-15T03:37:20.154Z,95477.52
2018-09-15T03:39:48.526Z,95480.89
2018-09-15T03:42:16.892Z,95472.23
2018-09-15T03:44:45.311Z,95484.37
2018-09-15T03:47:13.679Z,95480.22
2018-09-15T03:49:42.046Z,95479.70
2018-09-15T03:52:10.454Z,95478.23
2018-09-15T03:54:38.813Z,95473.85
2018-09-15T03:57:07.238Z,95478.71
2018-09-15T03:59:35.643Z,95476.81
2018-09-15T04:02:04.055Z,95479.94
2018-09-15T04:04:32.413Z,95481.31
2018-09-15T04:07:00.857Z,95482.87
2018-09-15T04:09:29.259Z,95478.25
2018-09-15T04:11:57.703Z,95470.36
2018-09-15T04:14:26.103Z,95477.82
2018-09-15T04:16:54.680Z,95483.15
2018-09-15T04:19:23.063Z,95473.17
2018-09-15T04:21:51.610Z,95478.88
2018-09-15T04:24:20.016Z,95478.70
2018-09-15T04:26:48.441Z,95489.42
2018-09-15T04:29:16.828Z,95485.56
2018-09-15T04:31:45.253Z,95490.86
2018-09-15T04:34:13.651Z,95492.96
2018-09-15T04:36:42.030Z,95485.98
2018-09-15T04:39:11.971Z,95494.85
2018-09-15T04:41:40.736Z,95488.52
2018-09-15T04:44:08.992Z,95488.89
2018-09-15T04:46:37.418Z,95477.43
2018-09-15T04:49:05.904Z,95491.09
2018-09-15T04:51:34.343Z,95490.64
2018-09-15T04:54:02.662Z,95496.92
2018-09-15T04:56:31.027Z,95490.86
2018-09-15T04:58:59.484Z,95487.78
2018-09-15T05:01:27.850Z,95493.31
2018-09-15T05:03:56.297Z,95496.53
2018-09-15T05:06:24.749Z,95496.32
2018-09-15T05:08:53.234Z,95497.59
2018-09-15T05:11:21.807Z,95501.66
2018-09-15T05:13:50.351Z,95496.20
2018-09-15T05:16:18.755Z,95505.87
2018-09-15T05:18:47.326Z,95511.78
2018-09-15T05:21:15.737Z,95515.29
2018-09-15T05:23:44.179Z,95518.33
2018-09-15T05:26:12.541Z,95519.23
2018-09-15T05:28:40.914Z,95520.82
2018-09-15T05:31:09.355Z,95527.61
2018-09-15T05:33:37.730Z,95527.00
2018-09-15T05:36:06.139Z,95524.50
2018-09-15T05:38:34.523Z,95524.77
2018-09-15T05:41:02.955Z,95533.83
2018-09-15T05:43:31.381Z,95532.05
2018-09-15T05:45:59.777Z,95540.95
2018-09-15T05:48:28.224Z,95548.59
2018-09-15T05:50:56.616Z,95556.09
2018-09-15T05:53:25.035Z,95558.42
2018-09-15T05:55:53.585Z,95561.87
2018-09-15T05:58:21.867Z,95565.27
2018-09-15T06:00:50.238Z,95564.59
2018-09-15T06:03:18.618Z,95568.52
2018-09-15T06:05:47.015Z,95576.01
2018-09-15T06:08:15.378Z,95566.75
2018-09-15T06:10:44.043Z,95576.64
2018-09-15T06:13:12.339Z,95579.82
2018-09-15T06:15:40.747Z,95575.98
2018-09-15T06:18:09.186Z,95572.09
2018-09-15T06:20:37.603Z,95569.72
2018-09-15T06:23:06.123Z,95576.27
2018-09-15T06:25:34.543Z,95583.53
2018-09-15T06:28:02.966Z,95574.83
2018-09-15T06:30:31.358Z,95580.36
2018-09-15T06:32:59.762Z,95581.67
2018-09-15T06:35:28.170Z,95583.59
2018-09-15T06:37:56.691Z,95584.15
2018-09-15T06:40:25.150Z,95585.73
2018-09-15T06:42:53.539Z,95592.84
2018-09-15T06:45:21.983Z,95591.09
2018-09-15T06:47:50.355Z,95589.62
2018-09-15T06:50:18.760Z,95592.11
2018-09-15T06:52:47.162Z,95603.50
2018-09-15T06:55:15.700Z,95600.45
2018-09-15T06:57:44.082Z,95598.64
2018-09-15T07:00:12.523Z,95610.48
2018-09-15T07:02:40.950Z,95603.55
2018-09-15T07:05:09.374Z,95610.37
2018-09-15T07:07:37.776Z,95608.76
2018-09-15T07:10:06.190Z,95605.81
2018-09-15T07:12:34.647Z,95609.61
2018-09-15T07:15:03.111Z,95609.77
2018-09-15T07:17:31.495Z,95614.20
2018-09-15T07:19:59.925Z,95612.42
2018-09-15T07:22:28.308Z,95620.61
2018-09-15T07:24:56.734Z,95619.91
2018-09-15T07:27:26.081Z,95616.00
2018-09-15T07:29:54.531Z,95613.31
2018-09-15T07:32:22.936Z,95628.89
2018-09-15T07:34:51.407Z,95624.99
2018-09-15T07:37:19.782Z,95629.86
2018-09-15T07:39:48.286Z,95632.86
2018-09-15T07:42:16.687Z,95635.78
2018-09-15T07:44:45.228Z,95638.89
2018-09-15T07:47:13.538Z,95637.84
2018-09-15T07:49:41.951Z,95641.78
2018-09-15T07:52:10.355Z,95646.36
2018-09-15T07:54:38.729Z,95645.97
2018-09-15T07:57:07.086Z,95648.33
2018-09-15T07:59:35.462Z,95658.05
2018-09-15T08:02:08.081Z,95656.55
2018-09-15T08:04:36.488Z,95654.52
2018-09-15T08:07:05.035Z,95648.30
2018-09-15T08:09:33.461Z,95643.27
2018-09-15T08:12:01.858Z,95650.78
2018-09-15T08:14:30.239Z,95652.50
2018-09-15T08:16:58.655Z,95651.22
2018-09-15T08:19:27.064Z,95644.09
2018-09-15T08:21:55.544Z,95646.89
2018-09-15T08:24:24.973Z,95650.20
2018-09-15T08:26:53.476Z,95649.85
2018-09-15T08:29:22.155Z,95656.70
2018-09-15T08:31:50.902Z,95655.13
2018-09-15T08:34:19.299Z,95653.49
2018-09-15T08:36:47.690Z,95653.52
2018-09-15T08:39:16.074Z,95666.55
2018-09-15T08:41:44.491Z,95667.16
2018-09-15T08:44:12.884Z,95667.58
2018-09-15T08:46:41.291Z,95669.05
2018-09-15T08:49:10.743Z,95670.95
2018-09-15T08:51:39.142Z,95673.61
2018-09-15T08:54:07.533Z,95677.50
2018-09-15T08:56:35.997Z,95673.93
2018-09-15T08:59:04.405Z,95678.74
2018-09-15T09:01:32.716Z,95684.45
2018-09-15T09:04:01.152Z,95684.49
2018-09-15T09:06:29.509Z,95684.76
2018-09-15T09:08:57.886Z,95689.94
2018-09-15T09:11:26.311Z,95693.05
2018-09-15T09:13:54.725Z,95687.63
2018-09-15T09:16:23.134Z,95693.45
2018-09-15T09:18:51.575Z,95698.72
2018-09-15T09:21:20.213Z,95705.19
2018-09-15T09:23:48.645Z,95709.07
2018-09-15T09:26:17.170Z,95713.54
2018-09-15T09:28:45.514Z,95716.66
2018-09-15T09:31:13.951Z,95716.53
2018-09-15T09:33:42.399Z,95704.84
2018-09-15T09:36:10.970Z,95713.70
2018-09-15T09:38:39.447Z,95712.13
2018-09-15T09:41:08.935Z,95718.45
2018-09-15T09:43:37.365Z,95717.94
2018-09-15T09:46:05.765Z,95716.98
2018-09-15T09:48:34.166Z,95714.70
2018-09-15T09:51:02.561Z,95721.09
2018-09-15T09:53:30.975Z,95717.28
2018-09-15T09:55:59.391Z,95708.16
2018-09-15T09:58:27.847Z,95716.66
2018-09-15T10:00:58.075Z,95718.61
2018-09-15T10:03:27.530Z,95722.66
2018-09-15T10:05:55.985Z,95718.22
2018-09-15T10:08:24.407Z,95717.52
2018-09-15T10:10:52.800Z,95711.41
2018-09-15T10:13:21.205Z,95711.13
2018-09-15T10:15:49.624Z,95710.23
2018-09-15T10:18:17.996Z,95708.33
2018-09-15T10:20:46.379Z,95719.48
2018-09-15T10:23:14.841Z,95705.57
2018-09-15T10:25:43.235Z,95711.56
2018-09-15T10:28:11.615Z,95714.33
2018-09-15T10:30:40.027Z,95713.42
2018-09-15T10:33:08.483Z,95715.87
2018-09-15T10:35:36.902Z,95716.14
2018-09-15T10:38:05.316Z,95714.81
2018-09-15T10:40:33.849Z,95721.03
2018-09-15T10:43:02.156Z,95716.76
2018-09-15T10:45:30.621Z,95721.95
2018-09-15T10:47:59.035Z,95728.41
2018-09-15T10:50:27.489Z,95722.09
2018-09-15T10:52:56.333Z,95725.30
2018-09-15T10:55:24.818Z,95719.52
2018-09-15T10:57:53.187Z,95720.00
2018-09-15T11:00:21.757Z,95717.69
2018-09-15T11:02:50.157Z,95725.30
2018-09-15T11:05:18.587Z,95725.80
2018-09-15T11:07:47.115Z,95725.12
2018-09-15T11:10:15.496Z,95727.21
2018-09-15T11:12:43.886Z,95729.61
2018-09-15T11:15:12.269Z,95728.94
2018-09-15T11:17:40.700Z,95727.13
2018-09-15T11:20:09.108Z,95726.42
2018-09-15T11:22:37.484Z,95727.20
2018-09-15T11:25:05.870Z,95733.19
2018-09-15T11:27:34.261Z,95731.65
2018-09-15T11:30:02.619Z,95734.83
2018-09-15T11:32:31.059Z,95731.65
2018-09-15T11:34:59.445Z,95729.66
2018-09-15T11:37:28.028Z,95725.48
2018-09-15T11:39:56.422Z,95724.86
2018-09-15T11:42:24.911Z,95722.55
2018-09-15T11:44:53.359Z,95730.08
2018-09-15T11:47:21.799Z,95728.56
2018-09-15T11:49:50.217Z,95726.41
2018-09-15T11:52:18.671Z,95727.09
2018-09-15T11:54:47.116Z,95714.92
2018-09-15T11:57:15.470Z,95719.51
2018-09-15T11:59:43.898Z,95726.28
2018-09-15T12:02:12.243Z,95725.77
2018-09-15T12:04:40.675Z,95728.08
2018-09-15T12:07:08.964Z,95729.12
2018-09-15T12:09:37.440Z,95733.88
2018-09-15T12:12:05.974Z,95737.41
2018-09-15T12:14:34.400Z,95744.23
2018-09-15T12:17:02.892Z,95743.55
2018-09-15T12:19:31.410Z,95738.61
2018-09-15T12:21:59.815Z,95745.66
2018-09-15T12:24:28.242Z,95741.95
2018-09-15T12:26:56.635Z,95743.38
2018-09-15T12:29:25.174Z,95742.50
2018-09-15T12:31:53.641Z,95738.33
2018-09-15T12:34:22.054Z,95738.70
2018-09-15T12:37:00.620Z,95739.41
2018-09-15T12:42:06.034Z,95734.98
2018-09-15T12:44:34.307Z,95736.54
2018-09-15T12:47:02.586Z,95729.58
2018-09-15T12:49:30.895Z,95728.14
2018-09-15T12:51:59.304Z,95737.56
2018-09-15T12:54:27.698Z,95738.23
2018-09-15T12:56:56.120Z,95741.70
2018-09-15T12:59:24.513Z,95739.85
2018-09-15T13:01:52.987Z,95744.58
2018-09-15T13:04:21.357Z,95746.80
2018-09-15T13:06:50.061Z,95755.23
2018-09-15T13:09:18.370Z,95752.84
2018-09-15T13:11:46.746Z,95758.27
2018-09-15T13:14:15.151Z,95758.17
2018-09-15T13:16:43.578Z,95762.63
2018-09-15T13:19:12.022Z,95762.73
2018-09-15T13:21:40.439Z,95762.09
2018-09-15T13:24:08.850Z,95763.63
2018-09-15T13:26:37.255Z,95752.95
2018-09-15T13:29:05.814Z,95764.23
2018-09-15T13:31:34.314Z,95762.68
2018-09-15T13:34:02.853Z,95759.78
2018-09-15T13:36:31.249Z,95763.15
2018-09-15T13:38:59.839Z,95763.04
2018-09-15T13:41:28.257Z,95763.89
2018-09-15T13:43:56.697Z,95773.60
2018-09-15T13:46:25.078Z,95772.55
2018-09-15T13:48:53.532Z,95772.41
2018-09-15T13:51:21.883Z,95768.97
2018-09-15T13:53:50.275Z,95765.86
2018-09-15T13:56:18.690Z,95766.42
2018-09-15T13:58:47.038Z,95765.28
2018-09-15T14:01:15.383Z,95770.94
2018-09-15T14:03:43.761Z,95767.48
2018-09-15T14:06:12.180Z,95768.69
2018-09-15T14:08:40.754Z,95770.34
2018-09-15T14:11:09.136Z,95769.05
2018-09-15T14:13:37.519Z,95767.55
2018-09-15T14:16:05.950Z,95765.04
2018-09-15T14:18:34.338Z,95771.77
2018-09-15T14:21:02.785Z,95765.45
2018-09-15T14:23:31.176Z,95769.05
2018-09-15T14:25:59.601Z,95771.27
2018-09-15T14:28:28.013Z,95771.03
2018-09-15T14:30:56.411Z,95752.38
2018-09-15T14:33:24.833Z,95751.61
2018-09-15T14:35:53.190Z,95749.02
2018-09-15T14:38:21.679Z,95752.05
2018-09-15T14:40:50.189Z,95752.93
2018-09-15T14:43:18.619Z,95764.24
2018-09-15T14:45:47.078Z,95764.98
2018-09-15T14:48:15.588Z,95767.91
2018-09-15T14:50:43.938Z,95768.16
2018-09-15T14:53:12.361Z,95765.80
2018-09-15T14:55:40.802Z,95762.83
2018-09-15T14:58:09.242Z,95762.02
2018-09-15T15:00:37.666Z,95769.92
2018-09-15T15:03:07.887Z,95764.55
2018-09-15T15:05:36.231Z,95770.05
2018-09-15T15:08:04.852Z,95769.27
2018-09-15T15:10:33.297Z,95771.48
2018-09-15T15:13:01.671Z,95776.17
2018-09-15T15:15:30.060Z,95787.72
2018-09-15T15:17:58.459Z,95782.52
2018-09-15T15:20:26.862Z,95785.59
2018-09-15T15:22:55.274Z,95779.48
2018-09-15T15:25:23.650Z,95765.50
2018-09-15T15:27:52.011Z,95779.34
2018-09-15T15:30:20.450Z,95773.09
2018-09-15T15:32:48.898Z,95774.89
2018-09-15T15:35:23.891Z,95777.06
2018-09-15T15:37:52.115Z,95778.00
2018-09-15T15:40:20.438Z,95778.15
2018-09-15T15:42:48.738Z,95775.67
2018-09-15T15:45:17.047Z,95786.54
2018-09-15T15:47:45.361Z,95787.45
2018-09-15T15:50:13.700Z,95781.80
2018-09-15T15:52:41.983Z,95784.07
2018-09-15T15:55:10.270Z,95779.61
2018-09-15T15:57:38.548Z,95775.97
2018-09-15T16:00:07.093Z,95780.56
2018-09-15T16:02:35.614Z,95787.43
2018-09-15T16:05:03.952Z,95781.48
2018-09-15T16:07:32.348Z,95785.62
2018-09-15T16:10:00.658Z,95785.33
2018-09-15T16:12:28.991Z,95796.83
2018-09-15T16:14:57.277Z,95794.47
2018-09-15T16:17:25.535Z,95794.74
2018-09-15T16:19:53.805Z,95792.94
2018-09-15T16:22:22.145Z,95797.42
2018-09-15T16:24:50.444Z,95798.05
2018-09-15T16:27:18.694Z,95790.19
2018-09-15T16:29:46.963Z,95794.45
2018-09-15T16:32:15.238Z,95796.55
2018-09-15T16:34:43.514Z,95796.20
2018-09-15T16:37:11.800Z,95790.42
2018-09-15T16:39:40.064Z,95792.91
2018-09-15T16:42:08.328Z,95789.51
2018-09-15T16:44:36.696Z,95788.48
2018-09-15T16:47:05.295Z,95790.16
2018-09-15T16:49:33.686Z,95791.28
2018-09-15T16:52:02.058Z,95793.33
2018-09-15T16:54:30.392Z,95792.73
2018-09-15T16:56:58.846Z,95796.05
2018-09-15T16:59:27.131Z,95797.51
2018-09-15T17:01:55.534Z,95798.16
2018-09-15T17:04:23.951Z,95805.23
2018-09-15T17:06:52.302Z,95801.59
2018-09-15T17:09:20.698Z,95799.30
2018-09-15T17:11:49.111Z,95802.22
2018-09-15T17:14:17.470Z,95802.98
2018-09-15T17:16:45.976Z,95804.01
2018-09-15T17:19:14.266Z,95798.87
2018-09-15T17:21:42.667Z,95804.71
2018-09-15T17:24:11.048Z,95807.22
2018-09-15T17:26:39.512Z,95802.52
2018-09-15T17:29:07.915Z,95800.45
2018-09-15T17:31:36.324Z,95800.98
2018-09-15T17:34:04.693Z,95802.88
2018-09-15T17:36:33.051Z,95803.82
2018-09-15T17:39:01.415Z,95800.81
2018-09-15T17:41:29.774Z,95808.25
2018-09-15T17:43:58.159Z,95808.19
2018-09-15T17:46:26.524Z,95814.01
2018-09-15T17:48:54.956Z,95816.53
2018-09-15T17:51:23.337Z,95825.10
2018-09-15T17:53:51.740Z,95823.55
2018-09-15T17:56:20.267Z,95826.61
2018-09-15T17:58:48.643Z,95825.13
2018-09-15T18:01:17.012Z,95822.48
2018-09-15T18:03:45.400Z,95830.41
2018-09-15T18:06:13.890Z,95836.19
2018-09-15T18:08:42.250Z,95833.28
2018-09-15T18:11:10.644Z,95844.05
2018-09-15T18:13:39.056Z,95845.08
2018-09-15T18:16:07.506Z,95844.58
2018-09-15T18:18:35.887Z,95842.48
2018-09-15T18:21:04.303Z,95836.98
2018-09-15T18:23:32.774Z,95839.34
2018-09-15T18:26:01.167Z,95837.52
2018-09-15T18:28:29.524Z,95836.98
2018-09-15T18:30:57.919Z,95836.19
2018-09-15T18:33:26.316Z,95838.03
2018-09-15T18:35:54.743Z,95848.47
2018-09-15T18:38:23.127Z,95847.33
2018-09-15T18:40:51.498Z,95846.09
2018-09-15T18:43:19.905Z,95849.51
2018-09-15T18:45:48.247Z,95845.05
2018-09-15T18:48:16.636Z,95836.45
2018-09-15T18:50:45.086Z,95842.20
2018-09-15T18:53:13.411Z,95846.36
2018-09-15T18:55:41.836Z,95852.39
2018-09-15T18:58:10.261Z,95850.56
2018-09-15T19:00:38.579Z,95850.67
2018-09-15T19:03:06.993Z,95851.73
2018-09-15T19:05:35.337Z,95856.14
2018-09-15T19:08:03.711Z,95857.59
2018-09-15T19:10:32.107Z,95859.95
2018-09-15T19:13:00.587Z,95861.84
2018-09-15T19:15:28.980Z,95859.70
2018-09-15T19:17:57.342Z,95860.72
2018-09-15T19:20:25.790Z,95861.62
2018-09-15T19:22:54.127Z,95867.07
2018-09-15T19:25:22.547Z,95870.53
2018-09-15T19:27:50.928Z,95872.45
2018-09-15T19:30:19.388Z,95872.39
2018-09-15T19:32:47.808Z,95883.00
2018-09-15T19:35:16.190Z,95884.77
2018-09-15T19:37:44.619Z,95885.91
2018-09-15T19:40:12.989Z,95883.49
2018-09-15T19:42:41.328Z,95879.16
2018-09-15T19:45:09.731Z,95878.34
2018-09-15T19:47:38.028Z,95887.59
2018-09-15T19:50:06.418Z,95881.62
2018-09-15T19:52:34.941Z,95889.17
2018-09-15T19:55:03.311Z,95889.31
2018-09-15T19:57:32.415Z,95894.08
2018-09-15T20:00:00.823Z,95891.09
2018-09-15T20:02:29.249Z,95897.06
2018-09-15T20:04:57.674Z,95897.25
2018-09-15T20:07:26.004Z,95896.16
2018-09-15T20:09:54.368Z,95898.41
2018-09-15T20:12:22.741Z,95896.77
2018-09-15T20:14:51.095Z,95895.73
2018-09-15T20:17:18.344Z,95895.83
2018-09-15T20:19:45.594Z,95898.59
2018-09-15T20:22:14.122Z,95900.20
2018-09-15T20:24:42.474Z,95898.20
2018-09-15T20:27:10.831Z,95902.69
2018-09-15T20:29:39.218Z,95901.50
2018-09-15T20:32:07.580Z,95897.59
2018-09-15T20:34:36.296Z,95896.56
2018-09-15T20:37:04.635Z,95891.80
2018-09-15T20:39:32.994Z,95888.27
2018-09-15T20:42:01.378Z,95891.94
2018-09-15T20:44:29.736Z,95891.04
2018-09-15T20:46:58.075Z,95893.27
2018-09-15T20:49:26.435Z,95893.02
2018-09-15T20:51:54.795Z,95895.19
2018-09-15T20:54:23.288Z,95894.43
2018-09-15T20:56:51.672Z,95898.48
2018-09-15T20:59:20.086Z,95898.37
2018-09-15T21:01:48.438Z,95903.30
2018-09-15T21:04:16.814Z,95902.28
2018-09-15T21:06:45.150Z,95908.47
2018-09-15T21:09:13.502Z,95907.23
2018-09-15T21:11:41.845Z,95903.06
2018-09-15T21:14:10.237Z,95903.94
2018-09-15T21:16:38.642Z,95900.19
2018-09-15T21:19:07.029Z,95905.61
2018-09-15T21:21:35.427Z,95904.13
2018-09-15T21:24:03.802Z,95904.08
2018-09-15T21:26:32.165Z,95902.94
2018-09-15T21:29:00.574Z,95903.33
2018-09-15T21:31:28.915Z,95907.07
2018-09-15T21:33:57.369Z,95906.94
2018-09-15T21:36:25.777Z,95911.20
2018-09-15T21:38:54.114Z,95911.63
2018-09-15T21:41:22.443Z,95913.84
2018-09-15T21:43:50.785Z,95909.13
2018-09-15T21:46:19.113Z,95907.49
2018-09-15T21:48:47.502Z,95907.70
2018-09-15T21:51:15.940Z,95904.69
2018-09-15T21:53:44.417Z,95903.91
2018-09-15T21:56:12.738Z,95900.26
2018-09-15T21:58:41.132Z,95901.05
2018-09-15T22:01:09.405Z,95908.63
2018-09-15T22:03:43.130Z,95907.19
2018-09-15T22:06:11.515Z,95913.14
2018-09-15T22:08:39.854Z,95908.91
2018-09-15T22:11:08.186Z,95905.70
2018-09-15T22:13:36.614Z,95907.66
2018-09-15T22:16:05.026Z,95908.27
2018-09-15T22:18:33.319Z,95909.20
2018-09-15T22:21:01.710Z,95905.44
2018-09-15T22:23:30.065Z,95908.17
2018-09-15T22:25:58.655Z,95915.91
2018-09-15T22:28:27.045Z,95910.52
2018-09-15T22:30:56.167Z,95916.81
2018-09-15T22:33:24.561Z,95912.60
2018-09-15T22:35:52.914Z,95916.02
2018-09-15T22:38:21.304Z,95917.17
2018-09-15T22:40:50.991Z,95904.19
2018-09-15T22:43:19.276Z,95914.81
2018-09-15T22:45:47.913Z,95911.88
2018-09-15T22:48:17.151Z,95906.77
2018-09-15T22:50:45.571Z,95914.89
2018-09-15T22:53:14.702Z,95908.12
2018-09-15T22:55:43.124Z,95912.01
2018-09-15T22:58:11.537Z,95903.08
2018-09-15T23:00:39.942Z,95908.17
2018-09-15T23:03:08.333Z,95903.90
2018-09-15T23:05:36.785Z,95901.01
2018-09-15T23:08:05.888Z,95895.98
2018-09-15T23:10:34.235Z,95903.50
2018-09-15T23:13:03.364Z,95894.86
2018-09-15T23:15:32.440Z,95898.97
2018-09-15T23:18:01.681Z,95907.26
2018-09-15T23:20:30.937Z,95903.62
2018-09-15T23:22:59.479Z,95895.88
2018-09-15T23:25:27.911Z,95896.55
2018-09-15T23:27:56.434Z,95901.56
2018-09-15T23:30:24.825Z,95891.95
2018-09-15T23:32:53.248Z,95895.45
2018-09-15T23:35:28.764Z,95902.73
2018-09-15T23:37:57.102Z,95896.11
2018-09-15T23:40:25.423Z,95895.56
2018-09-15T23:42:53.674Z,95897.92
2018-09-15T23:45:22.024Z,95901.95
2018-09-15T23:47:50.373Z,95900.98
2018-09-15T23:50:18.641Z,95893.98
2018-09-15T23:52:46.936Z,95887.67
2018-09-15T23:55:15.207Z,95889.38
2018-09-15T23:57:43.498Z,95880.90
